Huntsville, TX (77320)

4:45 PM CST on February 01, 2015 (GMT -0600)
RAWS HUNTSVILLE TX US | Change Station
CLOSE
Current Station
Personal Weather Station
Location: Huntsville, TX
Elevation: 354 ft
Nearby Weather Stations

Elev 354 ft 30.74 °N, 95.59 °W | Updated 39 minutes ago

Mostly Cloudy
Mostly Cloudy
69 °F
Feels Like 69 °F
N
7
Wind Variable Wind from NW
Gusts 14.0 mph

Today
High -- | Low -- °F
--% Chance of Precip.
Yesterday
High -- | Low -- °F
Precip. -- in
7:14 AM 5:58 PM
Waxing Gibbous, 96% visible
Pressure 29.89 in
Visibility 10.0 miles
Clouds Mostly Cloudy 3900 ft
Mostly Cloudy 5000 ft
Overcast 6000 ft
Dew Point 55 °F
Humidity 62%
Rainfall 0.03 in
Snow Depth Not available.
UV 1 out of 12
Pollen 8.30 out of 12
Air Quality Not available.
Flu Activity Not available.
METAR KUTS 012153Z AUTO 32011G18KT 10SM BKN039 BKN050 OVC060 21/13 A2990 RMK AO2 SLP122 T02110128 $

More Conditions Fewer Conditions

Pressure 29.89 in
Visibility 10.0 miles
Clouds Mostly Cloudy 3900 ft
Mostly Cloudy 5000 ft
Overcast 6000 ft
Dew Point 55 °F
Humidity 62%
Rainfall 0.03 in
Snow Depth Not available.
UV 1 out of 12
Pollen 8.30 out of 12
Air Quality Not available.
Flu Activity Not available.
METAR KUTS 012153Z AUTO 32011G18KT 10SM BKN039 BKN050 OVC060 21/13 A2990 RMK AO2 SLP122 T02110128 $

More Conditions Fewer Conditions

10-Day Weather Forecast

Almanac

Astronomy

Feb. 01, 2015 Rise Set
Actual Time
Civil Twilight
Nautical Twilight
Astronomical Twilight
Moon
Length of Visible Light
Length of Day
Tomorrow will be .
, % of the Moon is Illuminated

Today's Extremes

State Highs State Lows

Community

WunderPhotos

Upload Photos

1,792,581 photos uploaded!

WunderBlogs® & News

Nearby

Air Quality

  Air Quality AQ Index Pollutant
Not available.

Snow Depth

Station Depth Elevation

Earthquake Activity

City Distance Mag. Time & Date
Minimum magnitude displayed is 2.5.

Coastal Water Temperatures

Place Temperature

Nearby Weather Stations